Time;durP1;ratioP1;P1;durP2;ratioP2;P2;SDS_P1;SDS_P2;PMS_P1;PMS_P2;Temp;Humidity;BMP_temperature;BMP_pressure;BME280_temperature;BME280_humidity;BME280_pressure;Samples;Min_cycle;Max_cycle;Signal;HPM_P1;HPM_P2
2021/06/08 00:00:56;;;;;;;18.00;13.00;;;;;;;;;;739146;187;813508;-73
2021/06/08 00:03:22;;;;;;;16.77;13.80;;;;;;;;;;741247;187;914667;-73
2021/06/08 00:05:48;;;;;;;17.20;14.63;;;;;;;;;;746385;187;905244;-73
2021/06/08 00:08:14;;;;;;;16.40;14.00;;;;;;;;;;736850;187;918789;-73
2021/06/08 00:10:39;;;;;;;15.50;13.07;;;;;;;;;;740900;187;918901;-73
2021/06/08 00:13:05;;;;;;;19.30;13.77;;;;;;;;;;744128;187;918570;-73
2021/06/08 00:15:31;;;;;;;18.43;12.97;;;;;;;;;;742389;187;918754;-73
2021/06/08 00:17:57;;;;;;;15.60;12.23;;;;;;;;;;742625;186;994672;-73
2021/06/08 00:20:23;;;;;;;15.13;12.57;;;;;;;;;;743119;186;916808;-73
2021/06/08 00:22:49;;;;;;;16.80;12.52;;;;;;;;;;751166;186;920455;-73
2021/06/08 00:25:15;;;;;;;15.63;13.43;;;;;;;;;;744585;186;816895;-73
2021/06/08 00:27:40;;;;;;;18.20;14.15;;;;;;;;;;745631;186;867607;-73
2021/06/08 00:30:07;;;;;;;16.93;13.50;;;;;;;;;;751534;186;917611;-72
2021/06/08 00:32:33;;;;;;;18.80;15.33;;;;;;;;;;740081;186;918115;-73
2021/06/08 00:34:59;;;;;;;19.80;15.07;;;;;;;;;;741282;186;917334;-74
2021/06/08 00:37:25;;;;;;;22.73;15.20;;;;;;;;;;749056;186;917662;-73
2021/06/08 00:39:52;;;;;;;17.23;14.40;;;;;;;;;;737967;186;917713;-73
2021/06/08 00:42:17;;;;;;;20.07;15.30;;;;;;;;;;739150;186;1020782;-72
2021/06/08 00:44:43;;;;;;;16.53;13.80;;;;;;;;;;741496;186;1020717;-73
2021/06/08 00:47:09;;;;;;;18.60;14.07;;;;;;;;;;750962;184;816215;-73
2021/06/08 00:49:35;;;;;;;16.67;14.50;;;;;;;;;;736827;186;919065;-73
2021/06/08 00:52:01;;;;;;;20.73;13.90;;;;;;;;;;745637;187;815874;-73
2021/06/08 00:54:27;;;;;;;21.70;14.97;;;;;;;;;;743624;187;816391;-72
2021/06/08 00:56:53;;;;;;;17.83;14.30;;;;;;;;;;739575;187;917595;-73
2021/06/08 00:59:18;;;;;;;19.23;14.30;;;;;;;;;;740235;187;923269;-73
2021/06/08 01:01:44;;;;;;;18.83;13.30;;;;;;;;;;746729;187;881818;-73
2021/06/08 01:04:10;;;;;;;16.80;13.33;;;;;;;;;;747910;187;816580;-73
2021/06/08 01:06:36;;;;;;;16.10;13.80;;;;;;;;;;748101;187;916012;-73
2021/06/08 01:09:02;;;;;;;14.57;12.70;;;;;;;;;;748233;187;617850;-73
2021/06/08 01:11:28;;;;;;;16.70;13.63;;;;;;;;;;742573;187;919742;-73
2021/06/08 01:13:53;;;;;;;15.53;13.37;;;;;;;;;;746422;187;916372;-73
2021/06/08 01:16:19;;;;;;;19.23;14.80;;;;;;;;;;741580;187;816383;-73
2021/06/08 01:18:45;;;;;;;17.30;15.20;;;;;;;;;;748059;187;812825;-73
2021/06/08 01:21:11;;;;;;;19.47;15.90;;;;;;;;;;745034;187;915094;-73
2021/06/08 01:23:37;;;;;;;19.70;15.37;;;;;;;;;;741142;187;914791;-73
2021/06/08 01:26:03;;;;;;;17.98;14.73;;;;;;;;;;747707;187;919240;-73
2021/06/08 01:28:28;;;;;;;19.13;15.43;;;;;;;;;;744471;185;918346;-73
2021/06/08 01:30:54;;;;;;;18.67;16.17;;;;;;;;;;744139;186;919790;-72
2021/06/08 01:33:20;;;;;;;19.20;16.27;;;;;;;;;;750679;186;917341;-73
2021/06/08 01:35:46;;;;;;;22.80;18.37;;;;;;;;;;743037;186;884899;-72
2021/06/08 01:38:12;;;;;;;16.97;14.73;;;;;;;;;;740006;186;919124;-72
2021/06/08 01:40:38;;;;;;;17.30;15.17;;;;;;;;;;743407;186;816828;-74
2021/06/08 01:43:03;;;;;;;18.73;15.30;;;;;;;;;;744607;186;815401;-73
2021/06/08 01:45:29;;;;;;;18.13;14.60;;;;;;;;;;741688;186;1021662;-72
2021/06/08 01:47:55;;;;;;;19.40;14.60;;;;;;;;;;742180;186;918883;-73
2021/06/08 01:50:21;;;;;;;17.13;13.80;;;;;;;;;;745455;187;917893;-73
2021/06/08 01:52:47;;;;;;;17.40;14.20;;;;;;;;;;745724;186;918117;-72
2021/06/08 01:55:13;;;;;;;17.33;14.30;;;;;;;;;;746472;186;916700;-73
2021/06/08 01:57:44;;;;;;;19.23;15.37;;;;;;;;;;744588;187;918049;-72
2021/06/08 02:00:20;;;;;;;28.10;15.63;;;;;;;;;;739751;187;882825;-74
2021/06/08 02:02:52;;;;;;;17.40;14.00;;;;;;;;;;738983;186;919515;-74
2021/06/08 02:05:18;;;;;;;22.07;16.03;;;;;;;;;;741324;187;914508;-74
2021/06/08 02:07:47;;;;;;;18.30;14.37;;;;;;;;;;740853;187;914611;-74
2021/06/08 02:10:31;;;;;;;17.10;14.40;;;;;;;;;;749938;187;916388;-74
2021/06/08 02:12:58;;;;;;;19.07;14.30;;;;;;;;;;744481;187;914853;-74
2021/06/08 02:15:24;;;;;;;19.83;13.23;;;;;;;;;;741080;187;915809;-73
2021/06/08 02:17:50;;;;;;;15.67;14.07;;;;;;;;;;739217;187;915357;-74
2021/06/08 02:20:19;;;;;;;17.30;13.10;;;;;;;;;;745836;187;824120;-74
2021/06/08 02:22:45;;;;;;;15.33;12.93;;;;;;;;;;745400;187;919205;-74
2021/06/08 02:25:10;;;;;;;18.23;11.77;;;;;;;;;;744116;187;917998;-73
2021/06/08 02:27:36;;;;;;;15.43;12.90;;;;;;;;;;741962;187;859041;-74
2021/06/08 02:30:02;;;;;;;21.13;14.30;;;;;;;;;;742494;187;918280;-74
2021/06/08 02:32:28;;;;;;;17.40;13.63;;;;;;;;;;739998;187;918440;-74
2021/06/08 02:34:54;;;;;;;13.33;11.40;;;;;;;;;;740249;187;922875;-74
2021/06/08 02:37:20;;;;;;;15.50;12.90;;;;;;;;;;748655;187;811138;-74
2021/06/08 02:39:46;;;;;;;17.87;14.07;;;;;;;;;;744583;186;627979;-74
2021/06/08 02:42:12;;;;;;;18.17;14.10;;;;;;;;;;744329;186;820959;-74
2021/06/08 02:44:37;;;;;;;16.70;13.37;;;;;;;;;;748032;186;919090;-74
2021/06/08 02:47:03;;;;;;;16.07;13.13;;;;;;;;;;744972;186;917708;-74
2021/06/08 02:49:29;;;;;;;16.23;13.67;;;;;;;;;;747382;186;822790;-74
2021/06/08 02:51:55;;;;;;;15.47;12.90;;;;;;;;;;746955;186;714104;-73
2021/06/08 02:54:21;;;;;;;16.65;13.05;;;;;;;;;;757205;184;918241;-73
2021/06/08 02:56:47;;;;;;;14.80;13.03;;;;;;;;;;744160;186;919952;-74
2021/06/08 02:59:12;;;;;;;16.10;13.10;;;;;;;;;;747183;186;919474;-74
2021/06/08 03:01:38;;;;;;;18.63;13.60;;;;;;;;;;749843;186;917430;-73
2021/06/08 03:04:04;;;;;;;17.03;14.20;;;;;;;;;;741450;186;916519;-74
2021/06/08 03:06:30;;;;;;;18.35;14.05;;;;;;;;;;742609;186;914198;-74
2021/06/08 03:08:57;;;;;;;19.73;14.20;;;;;;;;;;750580;186;777894;-74
2021/06/08 03:11:23;;;;;;;16.97;14.33;;;;;;;;;;741941;187;918881;-74
2021/06/08 03:13:49;;;;;;;16.85;15.02;;;;;;;;;;744520;186;918934;-74
2021/06/08 03:16:15;;;;;;;19.33;15.45;;;;;;;;;;746448;187;952780;-74
2021/06/08 03:18:41;;;;;;;20.57;16.83;;;;;;;;;;732385;187;918613;-74
2021/06/08 03:21:07;;;;;;;22.03;17.73;;;;;;;;;;739640;187;922306;-74
2021/06/08 03:23:34;;;;;;;22.07;17.53;;;;;;;;;;741914;187;817168;-73
2021/06/08 03:26:00;;;;;;;25.07;18.30;;;;;;;;;;744861;187;918852;-74
2021/06/08 03:28:25;;;;;;;28.33;18.90;;;;;;;;;;741218;187;816530;-74
2021/06/08 03:30:51;;;;;;;23.37;17.80;;;;;;;;;;740640;187;815972;-73
2021/06/08 03:33:17;;;;;;;20.42;17.45;;;;;;;;;;748087;187;918174;-74
2021/06/08 03:35:43;;;;;;;20.70;16.87;;;;;;;;;;743869;187;918650;-74
2021/06/08 03:38:09;;;;;;;20.70;17.08;;;;;;;;;;744533;187;918214;-74
2021/06/08 03:40:35;;;;;;;28.13;17.00;;;;;;;;;;745742;187;964073;-73
2021/06/08 03:43:00;;;;;;;21.63;16.53;;;;;;;;;;740659;187;917892;-74
2021/06/08 03:45:26;;;;;;;26.03;16.90;;;;;;;;;;740744;187;918982;-74
2021/06/08 03:47:52;;;;;;;24.47;19.17;;;;;;;;;;740266;187;996452;-74
2021/06/08 03:50:18;;;;;;;29.47;19.50;;;;;;;;;;746882;186;896702;-74
2021/06/08 03:52:49;;;;;;;26.10;19.60;;;;;;;;;;737996;186;1773828;-73
2021/06/08 03:55:10;;;;;;;28.80;22.25;;;;;;;;;;740069;186;816621;-74
2021/06/08 03:57:39;;;;;;;25.43;21.13;;;;;;;;;;750572;186;918409;-74
2021/06/08 04:00:02;;;;;;;29.27;23.07;;;;;;;;;;743529;186;817427;-74
2021/06/08 04:02:28;;;;;;;37.13;24.83;;;;;;;;;;745090;186;716603;-75
2021/06/08 04:04:54;;;;;;;33.70;24.97;;;;;;;;;;751521;186;624393;-75
2021/06/08 04:07:20;;;;;;;36.53;27.07;;;;;;;;;;741781;186;817987;-75
2021/06/08 04:09:46;;;;;;;45.43;27.77;;;;;;;;;;740855;186;918205;-76
2021/06/08 04:12:12;;;;;;;51.90;32.17;;;;;;;;;;743063;186;912253;-76
2021/06/08 04:14:38;;;;;;;48.50;30.83;;;;;;;;;;749507;184;915087;-75
2021/06/08 04:17:04;;;;;;;54.63;35.60;;;;;;;;;;739826;186;913716;-75
2021/06/08 04:19:30;;;;;;;50.40;36.88;;;;;;;;;;740320;186;918957;-75
2021/06/08 04:21:56;;;;;;;61.33;38.90;;;;;;;;;;745562;186;883461;-75
2021/06/08 04:24:22;;;;;;;60.50;39.33;;;;;;;;;;731963;187;814460;-75
2021/06/08 04:26:48;;;;;;;57.63;37.43;;;;;;;;;;744734;187;913229;-75
2021/06/08 04:29:14;;;;;;;51.57;38.00;;;;;;;;;;745183;187;919793;-75
2021/06/08 04:31:40;;;;;;;58.00;40.17;;;;;;;;;;738130;187;914721;-76
2021/06/08 04:34:05;;;;;;;50.33;35.90;;;;;;;;;;738921;187;928836;-74
2021/06/08 04:36:32;;;;;;;57.53;39.22;;;;;;;;;;742403;187;918717;-76
2021/06/08 04:38:58;;;;;;;53.33;35.27;;;;;;;;;;751551;184;814374;-75
2021/06/08 04:41:25;;;;;;;42.57;33.37;;;;;;;;;;748640;187;918745;-75
2021/06/08 04:43:50;;;;;;;44.80;32.20;;;;;;;;;;741980;187;883485;-75
2021/06/08 04:46:16;;;;;;;41.43;30.97;;;;;;;;;;747595;187;913685;-75
2021/06/08 04:48:41;;;;;;;38.37;29.80;;;;;;;;;;743321;187;715251;-75
2021/06/08 04:51:07;;;;;;;33.23;27.70;;;;;;;;;;741924;187;912056;-75
2021/06/08 04:53:33;;;;;;;31.90;26.70;;;;;;;;;;746503;187;912420;-75
2021/06/08 04:55:59;;;;;;;32.13;26.33;;;;;;;;;;742674;187;810172;-75
2021/06/08 04:58:25;;;;;;;29.05;23.65;;;;;;;;;;745278;187;912166;-75
2021/06/08 05:01:07;;;;;;;33.87;25.23;;;;;;;;;;746724;187;916180;-75
2021/06/08 05:03:31;;;;;;;27.40;24.10;;;;;;;;;;746458;185;816276;-75
2021/06/08 05:05:57;;;;;;;26.20;23.10;;;;;;;;;;742840;186;842389;-76
2021/06/08 05:08:23;;;;;;;25.88;23.10;;;;;;;;;;739866;186;1478718;-75
2021/06/08 05:10:49;;;;;;;24.20;20.93;;;;;;;;;;740022;186;915556;-76
2021/06/08 05:13:15;;;;;;;23.60;19.35;;;;;;;;;;752575;184;917880;-76
2021/06/08 05:15:41;;;;;;;29.20;21.50;;;;;;;;;;741680;186;916453;-76
2021/06/08 05:18:06;;;;;;;31.20;19.60;;;;;;;;;;742355;186;918708;-76
2021/06/08 05:20:32;;;;;;;27.63;19.63;;;;;;;;;;751969;186;919132;-76
2021/06/08 05:22:58;;;;;;;22.33;19.43;;;;;;;;;;740975;187;863228;-76
2021/06/08 05:25:25;;;;;;;22.97;18.73;;;;;;;;;;741329;186;919946;-75
2021/06/08 05:27:50;;;;;;;29.63;19.27;;;;;;;;;;741704;186;918427;-76
2021/06/08 05:30:16;;;;;;;24.03;18.40;;;;;;;;;;741834;186;915351;-75
2021/06/08 05:32:45;;;;;;;20.67;18.20;;;;;;;;;;741630;186;811513;-76
2021/06/08 05:35:11;;;;;;;19.73;17.00;;;;;;;;;;740404;186;918968;-76
2021/06/08 05:37:42;;;;;;;19.40;15.50;;;;;;;;;;751235;184;917662;-76
2021/06/08 05:40:06;;;;;;;15.50;13.80;;;;;;;;;;738692;187;918375;-77
2021/06/08 05:42:32;;;;;;;21.83;17.70;;;;;;;;;;747364;187;920002;-77
2021/06/08 05:44:57;;;;;;;18.07;15.80;;;;;;;;;;744767;187;978517;-76
2021/06/08 05:47:23;;;;;;;17.53;15.63;;;;;;;;;;738520;187;918429;-76
2021/06/08 05:49:49;;;;;;;23.13;16.87;;;;;;;;;;739640;187;904371;-76
2021/06/08 05:52:15;;;;;;;19.83;15.03;;;;;;;;;;744947;187;919911;-76
2021/06/08 05:54:41;;;;;;;19.30;15.23;;;;;;;;;;741137;187;918081;-76
2021/06/08 05:57:07;;;;;;;18.85;14.55;;;;;;;;;;742114;187;915636;-77
2021/06/08 05:59:33;;;;;;;16.80;14.97;;;;;;;;;;739006;187;923499;-76
2021/06/08 06:01:59;;;;;;;15.37;13.57;;;;;;;;;;748852;187;917250;-77
2021/06/08 06:04:25;;;;;;;18.23;13.20;;;;;;;;;;742801;187;904405;-76
2021/06/08 06:06:51;;;;;;;18.58;14.68;;;;;;;;;;742906;187;854325;-77
2021/06/08 06:09:19;;;;;;;17.03;14.00;;;;;;;;;;746289;187;918605;-75
2021/06/08 06:11:42;;;;;;;21.20;14.13;;;;;;;;;;744517;187;917564;-76
2021/06/08 06:14:08;;;;;;;17.13;13.80;;;;;;;;;;740363;186;825990;-77
2021/06/08 06:16:36;;;;;;;16.00;13.67;;;;;;;;;;746288;186;918633;-77
2021/06/08 06:19:01;;;;;;;16.33;13.47;;;;;;;;;;744774;186;918310;-76
2021/06/08 06:21:27;;;;;;;15.70;13.87;;;;;;;;;;741191;186;917959;-76
2021/06/08 06:23:52;;;;;;;17.60;15.87;;;;;;;;;;737456;186;1124138;-76
2021/06/08 06:26:18;;;;;;;15.80;14.30;;;;;;;;;;747017;186;814148;-76
2021/06/08 06:28:44;;;;;;;16.73;14.93;;;;;;;;;;743247;186;816305;-76
2021/06/08 06:31:10;;;;;;;15.50;13.63;;;;;;;;;;743429;186;906277;-76
2021/06/08 06:33:36;;;;;;;15.60;13.60;;;;;;;;;;745420;186;918278;-76
2021/06/08 06:36:02;;;;;;;14.83;13.17;;;;;;;;;;742689;186;918722;-76
2021/06/08 06:38:28;;;;;;;12.67;10.97;;;;;;;;;;742821;187;932206;-76
2021/06/08 06:40:53;;;;;;;13.43;12.07;;;;;;;;;;746456;186;807870;-76
2021/06/08 06:43:19;;;;;;;15.03;11.27;;;;;;;;;;740947;186;918071;-77
2021/06/08 06:45:45;;;;;;;13.15;11.25;;;;;;;;;;740403;186;918817;-76
2021/06/08 06:48:14;;;;;;;12.83;11.53;;;;;;;;;;753668;186;920775;-77
2021/06/08 06:50:37;;;;;;;11.20;10.00;;;;;;;;;;740446;187;918696;-77
2021/06/08 06:53:03;;;;;;;11.13;9.57;;;;;;;;;;742632;187;917835;-77
2021/06/08 06:55:29;;;;;;;15.80;9.43;;;;;;;;;;748423;187;915245;-77
2021/06/08 06:57:54;;;;;;;15.83;10.40;;;;;;;;;;747376;187;918104;-77
2021/06/08 07:00:20;;;;;;;12.17;10.40;;;;;;;;;;742031;187;919043;-77
2021/06/08 07:02:47;;;;;;;10.80;9.30;;;;;;;;;;737014;187;956308;-77
2021/06/08 07:05:12;;;;;;;12.23;10.37;;;;;;;;;;749916;187;917636;-77
2021/06/08 07:07:38;;;;;;;11.80;9.23;;;;;;;;;;743297;187;919036;-77
2021/06/08 07:10:05;;;;;;;13.33;10.50;;;;;;;;;;742439;187;803457;-76
2021/06/08 07:12:31;;;;;;;13.63;8.47;;;;;;;;;;746596;187;919058;-77
2021/06/08 07:14:56;;;;;;;10.97;9.53;;;;;;;;;;744905;187;917894;-77
2021/06/08 07:17:24;;;;;;;13.27;11.10;;;;;;;;;;740984;187;918280;-77
2021/06/08 07:19:48;;;;;;;10.57;9.47;;;;;;;;;;743691;187;918778;-77
2021/06/08 07:22:15;;;;;;;12.43;10.60;;;;;;;;;;745036;185;1021099;-78
2021/06/08 07:24:40;;;;;;;13.17;10.37;;;;;;;;;;739821;187;948339;-76
2021/06/08 07:27:06;;;;;;;12.77;11.52;;;;;;;;;;742326;186;916135;-77
2021/06/08 07:29:32;;;;;;;13.03;10.27;;;;;;;;;;755276;186;802968;-77
2021/06/08 07:31:58;;;;;;;13.70;9.97;;;;;;;;;;746945;186;914432;-77
2021/06/08 07:34:29;;;;;;;15.10;11.80;;;;;;;;;;745707;186;816198;-77
2021/06/08 07:36:56;;;;;;;13.23;10.63;;;;;;;;;;749689;186;919074;-77
2021/06/08 07:39:22;;;;;;;11.90;10.80;;;;;;;;;;749641;184;915878;-77
2021/06/08 07:41:50;;;;;;;12.23;10.83;;;;;;;;;;743530;186;918551;-77
2021/06/08 07:44:16;;;;;;;12.93;10.60;;;;;;;;;;745062;186;918852;-77
2021/06/08 07:46:42;;;;;;;13.90;10.85;;;;;;;;;;747085;186;919595;-77
2021/06/08 07:49:09;;;;;;;12.67;11.43;;;;;;;;;;739861;186;919438;-77
2021/06/08 07:51:34;;;;;;;13.55;10.85;;;;;;;;;;739972;187;1020883;-76
2021/06/08 07:54:00;;;;;;;13.50;10.70;;;;;;;;;;744010;186;1020318;-79
2021/06/08 07:56:27;;;;;;;13.05;11.68;;;;;;;;;;743354;186;915997;-78
2021/06/08 07:58:52;;;;;;;12.07;10.80;;;;;;;;;;742272;186;918130;-78
2021/06/08 08:01:20;;;;;;;22.57;12.57;;;;;;;;;;741220;187;919256;-77
2021/06/08 08:03:44;;;;;;;17.27;11.50;;;;;;;;;;740309;187;816155;-77
2021/06/08 08:06:09;;;;;;;15.70;10.53;;;;;;;;;;738761;187;1537968;-79
2021/06/08 08:08:35;;;;;;;15.73;12.57;;;;;;;;;;736189;187;979737;-78
2021/06/08 08:11:01;;;;;;;13.33;11.10;;;;;;;;;;747190;187;816356;-78
2021/06/08 08:13:28;;;;;;;15.43;13.17;;;;;;;;;;740691;187;918229;-78
2021/06/08 08:15:54;;;;;;;13.73;10.87;;;;;;;;;;739177;187;919428;-75
2021/06/08 08:18:19;;;;;;;18.00;11.37;;;;;;;;;;746489;187;711189;-77
2021/06/08 08:20:46;;;;;;;12.87;11.43;;;;;;;;;;745557;186;924987;-77
2021/06/08 08:23:11;;;;;;;14.50;12.47;;;;;;;;;;741510;187;922109;-76
2021/06/08 08:25:38;;;;;;;12.70;11.50;;;;;;;;;;746189;187;941764;-78
2021/06/08 08:28:04;;;;;;;13.23;11.83;;;;;;;;;;748549;187;957570;-78
2021/06/08 08:30:30;;;;;;;13.77;11.30;;;;;;;;;;740540;187;917883;-76
2021/06/08 08:32:55;;;;;;;16.53;12.33;;;;;;;;;;745910;187;918654;-77
2021/06/08 08:35:21;;;;;;;13.63;11.60;;;;;;;;;;750147;187;627152;-77
2021/06/08 08:37:49;;;;;;;12.20;10.10;;;;;;;;;;739733;186;1135010;-77
2021/06/08 08:40:15;;;;;;;14.83;12.80;;;;;;;;;;748397;186;815796;-76
2021/06/08 08:42:41;;;;;;;13.60;12.30;;;;;;;;;;750618;186;696343;-76
2021/06/08 08:45:07;;;;;;;14.10;11.60;;;;;;;;;;744626;186;788366;-76
2021/06/08 08:47:33;;;;;;;15.73;13.57;;;;;;;;;;742588;186;922165;-76
2021/06/08 08:49:59;;;;;;;15.25;10.95;;;;;;;;;;743776;186;917505;-78
2021/06/08 08:52:25;;;;;;;12.93;11.57;;;;;;;;;;742023;186;918341;-77
2021/06/08 08:54:51;;;;;;;14.30;11.60;;;;;;;;;;739671;186;816264;-76
2021/06/08 08:57:17;;;;;;;13.63;10.70;;;;;;;;;;741715;186;814610;-76
2021/06/08 08:59:42;;;;;;;19.80;13.53;;;;;;;;;;749061;186;715955;-76
2021/06/08 09:02:08;;;;;;;13.90;12.50;;;;;;;;;;751256;186;642199;-77
2021/06/08 09:04:34;;;;;;;13.60;12.30;;;;;;;;;;747053;186;666948;-77
2021/06/08 09:07:00;;;;;;;13.43;12.13;;;;;;;;;;746779;187;815915;-78
2021/06/08 09:09:26;;;;;;;15.73;11.43;;;;;;;;;;750013;186;817774;-77
2021/06/08 09:11:52;;;;;;;12.23;10.70;;;;;;;;;;745843;186;917095;-77
2021/06/08 09:14:18;;;;;;;12.57;10.70;;;;;;;;;;744982;187;816077;-76
2021/06/08 09:16:43;;;;;;;14.10;12.70;;;;;;;;;;744568;187;918600;-76
2021/06/08 09:19:09;;;;;;;13.57;12.07;;;;;;;;;;740735;187;1737122;-76
2021/06/08 09:21:38;;;;;;;14.87;10.80;;;;;;;;;;748513;187;914622;-77
2021/06/08 09:24:07;;;;;;;14.30;11.40;;;;;;;;;;747196;184;908392;-77
2021/06/08 09:26:33;;;;;;;12.13;10.90;;;;;;;;;;738706;187;915657;-77
2021/06/08 09:28:58;;;;;;;15.40;10.73;;;;;;;;;;730890;187;918713;-77
2021/06/08 09:31:26;;;;;;;11.77;10.63;;;;;;;;;;750782;187;815174;-77
2021/06/08 09:33:51;;;;;;;12.53;11.23;;;;;;;;;;744762;187;888097;-77
2021/06/08 09:36:16;;;;;;;15.30;10.37;;;;;;;;;;741469;187;915433;-77
2021/06/08 09:38:43;;;;;;;15.83;11.50;;;;;;;;;;745502;187;918188;-77
2021/06/08 09:41:09;;;;;;;11.93;10.77;;;;;;;;;;750329;184;824573;-77
2021/06/08 09:43:35;;;;;;;18.07;12.30;;;;;;;;;;737646;187;919596;-79
2021/06/08 09:46:01;;;;;;;16.57;10.80;;;;;;;;;;738249;187;929205;-77
2021/06/08 09:48:27;;;;;;;12.93;11.00;;;;;;;;;;745395;186;816670;-78
2021/06/08 09:50:53;;;;;;;16.57;11.40;;;;;;;;;;748353;186;814294;-78
2021/06/08 09:53:21;;;;;;;12.30;11.00;;;;;;;;;;737936;186;940824;-78
2021/06/08 09:55:47;;;;;;;19.63;11.40;;;;;;;;;;747270;186;919955;-77
2021/06/08 09:58:13;;;;;;;12.80;9.90;;;;;;;;;;745459;186;916761;-77
2021/06/08 10:00:39;;;;;;;18.20;11.37;;;;;;;;;;739455;186;920580;-77
2021/06/08 10:03:05;;;;;;;10.53;9.53;;;;;;;;;;741613;186;873951;-77
2021/06/08 10:05:31;;;;;;;11.63;10.43;;;;;;;;;;749519;186;810740;-77
2021/06/08 10:08:07;;;;;;;11.43;10.33;;;;;;;;;;737680;186;917157;-77
2021/06/08 10:10:35;;;;;;;15.33;10.80;;;;;;;;;;745682;186;914240;-78
2021/06/08 10:13:01;;;;;;;13.32;11.27;;;;;;;;;;739351;186;808021;-77
2021/06/08 10:15:27;;;;;;;15.03;10.70;;;;;;;;;;744879;187;809828;-78
2021/06/08 10:17:55;;;;;;;12.47;10.83;;;;;;;;;;739501;186;913445;-78
2021/06/08 10:20:22;;;;;;;13.23;11.67;;;;;;;;;;740752;186;910849;-78
2021/06/08 10:22:47;;;;;;;12.40;10.60;;;;;;;;;;742240;186;916388;-78
2021/06/08 10:25:13;;;;;;;15.20;11.90;;;;;;;;;;742492;186;900323;-78
2021/06/08 10:27:39;;;;;;;13.33;11.93;;;;;;;;;;742638;187;919014;-78
2021/06/08 10:30:06;;;;;;;14.03;12.47;;;;;;;;;;753280;187;918425;-78
2021/06/08 10:32:31;;;;;;;12.37;11.00;;;;;;;;;;749725;187;896260;-78
2021/06/08 10:34:57;;;;;;;12.63;10.30;;;;;;;;;;743355;187;920473;-78
2021/06/08 10:37:23;;;;;;;24.50;12.33;;;;;;;;;;740022;187;931392;-77
2021/06/08 10:39:49;;;;;;;12.98;11.43;;;;;;;;;;747661;187;815991;-77
2021/06/08 10:42:16;;;;;;;12.67;10.10;;;;;;;;;;744694;187;920721;-78
2021/06/08 10:44:41;;;;;;;13.30;11.43;;;;;;;;;;743378;187;815067;-78
2021/06/08 10:47:18;;;;;;;14.70;11.83;;;;;;;;;;745556;187;916784;-78
2021/06/08 10:49:32;;;;;;;15.63;12.97;;;;;;;;;;739900;187;814674;-77
2021/06/08 10:52:01;;;;;;;16.27;13.30;;;;;;;;;;743255;187;918354;-78
2021/06/08 10:54:27;;;;;;;13.33;12.03;;;;;;;;;;741322;187;917637;-78
2021/06/08 10:56:56;;;;;;;15.87;12.73;;;;;;;;;;738136;187;918797;-77
2021/06/08 10:59:21;;;;;;;13.73;12.33;;;;;;;;;;742111;187;887711;-78
2021/06/08 11:01:47;;;;;;;14.90;13.13;;;;;;;;;;749554;186;816093;-78
2021/06/08 11:04:15;;;;;;;15.37;13.77;;;;;;;;;;747323;186;918842;-77
2021/06/08 11:06:47;;;;;;;13.03;11.43;;;;;;;;;;745202;186;922273;-77
2021/06/08 11:09:14;;;;;;;18.10;13.03;;;;;;;;;;738103;186;1725043;-78
2021/06/08 11:11:42;;;;;;;13.77;12.10;;;;;;;;;;744314;186;918015;-77
2021/06/08 11:14:08;;;;;;;14.20;12.60;;;;;;;;;;747449;186;871337;-78
2021/06/08 11:16:34;;;;;;;15.80;12.60;;;;;;;;;;742958;186;917785;-77
2021/06/08 11:19:00;;;;;;;14.85;12.85;;;;;;;;;;744596;186;825233;-77
2021/06/08 11:21:26;;;;;;;14.90;12.70;;;;;;;;;;748124;186;916773;-77
2021/06/08 11:23:54;;;;;;;23.03;14.60;;;;;;;;;;745699;186;913357;-77
2021/06/08 11:26:17;;;;;;;15.93;13.53;;;;;;;;;;742675;186;913209;-78
2021/06/08 11:28:46;;;;;;;14.23;12.73;;;;;;;;;;740008;186;916259;-78
2021/06/08 11:31:13;;;;;;;18.93;12.57;;;;;;;;;;752973;184;917881;-78
2021/06/08 11:33:42;;;;;;;15.47;12.30;;;;;;;;;;742096;186;922637;-78
2021/06/08 11:36:23;;;;;;;14.37;12.30;;;;;;;;;;741674;186;917860;-78
2021/06/08 11:38:50;;;;;;;12.63;11.33;;;;;;;;;;736486;187;918667;-78
2021/06/08 11:41:17;;;;;;;20.53;12.73;;;;;;;;;;747536;187;1021832;-78
2021/06/08 11:43:42;;;;;;;14.43;11.77;;;;;;;;;;746778;187;916638;-77
2021/06/08 11:46:11;;;;;;;15.47;11.60;;;;;;;;;;745290;187;900006;-78
2021/06/08 11:48:36;;;;;;;15.23;12.17;;;;;;;;;;743417;187;918456;-77
2021/06/08 11:51:02;;;;;;;14.87;12.03;;;;;;;;;;743437;187;917364;-77
2021/06/08 11:53:28;;;;;;;13.20;11.77;;;;;;;;;;737815;187;1318425;-78
2021/06/08 11:56:00;;;;;;;12.63;11.00;;;;;;;;;;743574;187;814317;-78
2021/06/08 11:58:30;;;;;;;20.90;12.70;;;;;;;;;;743902;187;1021890;-77
2021/06/08 12:00:56;;;;;;;16.63;12.93;;;;;;;;;;746582;187;763834;-77
2021/06/08 12:03:25;;;;;;;15.77;14.00;;;;;;;;;;744256;187;910542;-77
2021/06/08 12:05:51;;;;;;;12.27;9.85;;;;;;;;;;741275;187;919113;-78
2021/06/08 12:08:21;;;;;;;18.87;12.93;;;;;;;;;;745478;187;816234;-77
2021/06/08 12:10:48;;;;;;;14.23;11.17;;;;;;;;;;745621;187;817209;-77
2021/06/08 12:13:13;;;;;;;12.50;11.27;;;;;;;;;;749676;186;815338;-78
2021/06/08 12:15:39;;;;;;;16.60;11.53;;;;;;;;;;750126;186;814217;-78
2021/06/08 12:18:06;;;;;;;14.43;12.00;;;;;;;;;;748235;184;815483;-78
2021/06/08 12:20:31;;;;;;;15.33;10.50;;;;;;;;;;748886;186;918910;-77
2021/06/08 12:22:57;;;;;;;17.03;11.97;;;;;;;;;;742817;186;818984;-77
2021/06/08 12:25:23;;;;;;;15.17;11.20;;;;;;;;;;737206;186;916016;-78
2021/06/08 12:27:49;;;;;;;12.47;10.30;;;;;;;;;;746332;186;823227;-78
2021/06/08 12:30:15;;;;;;;15.60;9.90;;;;;;;;;;740992;186;917549;-78
2021/06/08 12:32:41;;;;;;;11.97;10.57;;;;;;;;;;745361;187;918695;-78
2021/06/08 12:35:07;;;;;;;11.93;10.10;;;;;;;;;;746163;186;919307;-78
2021/06/08 12:37:33;;;;;;;10.73;9.40;;;;;;;;;;744418;186;817889;-78
2021/06/08 12:40:00;;;;;;;13.02;11.25;;;;;;;;;;745294;186;813066;-78
2021/06/08 12:42:26;;;;;;;10.43;9.43;;;;;;;;;;737008;186;813598;-79
2021/06/08 12:44:52;;;;;;;10.87;9.77;;;;;;;;;;740660;186;919931;-78
2021/06/08 12:47:17;;;;;;;11.63;8.87;;;;;;;;;;736316;186;918845;-78
2021/06/08 12:49:43;;;;;;;12.67;10.00;;;;;;;;;;748449;187;900500;-78
2021/06/08 12:52:12;;;;;;;11.10;9.80;;;;;;;;;;744119;187;812739;-78
2021/06/08 12:54:38;;;;;;;8.97;8.07;;;;;;;;;;738889;187;842046;-77
2021/06/08 12:57:02;;;;;;;9.90;8.10;;;;;;;;;;747027;187;888641;-78
2021/06/08 12:59:28;;;;;;;12.80;8.23;;;;;;;;;;742676;187;939976;-77
2021/06/08 13:01:54;;;;;;;8.90;8.00;;;;;;;;;;743566;187;931261;-78
2021/06/08 13:04:20;;;;;;;12.47;9.10;;;;;;;;;;745342;187;918977;-78
2021/06/08 13:06:46;;;;;;;8.60;7.70;;;;;;;;;;743367;187;919642;-78
2021/06/08 13:09:12;;;;;;;16.47;9.10;;;;;;;;;;741011;187;922057;-77
2021/06/08 13:11:38;;;;;;;13.70;8.20;;;;;;;;;;744615;187;633450;-78
2021/06/08 13:14:05;;;;;;;10.67;8.57;;;;;;;;;;753762;187;633778;-79
2021/06/08 13:16:34;;;;;;;9.67;8.70;;;;;;;;;;740840;187;789886;-79
2021/06/08 13:19:06;;;;;;;8.97;8.07;;;;;;;;;;743651;187;814709;-79
2021/06/08 13:21:31;;;;;;;15.90;8.53;;;;;;;;;;745871;187;918256;-78
2021/06/08 13:24:15;;;;;;;9.27;8.37;;;;;;;;;;744458;186;815779;-78
2021/06/08 13:26:41;;;;;;;12.73;7.83;;;;;;;;;;746970;186;884633;-78
2021/06/08 13:29:12;;;;;;;8.00;7.20;;;;;;;;;;743026;186;919184;-78
2021/06/08 13:31:38;;;;;;;8.80;7.97;;;;;;;;;;741113;186;913312;-78
2021/06/08 13:34:03;;;;;;;9.60;8.30;;;;;;;;;;748184;186;918188;-78
2021/06/08 13:36:31;;;;;;;10.70;8.37;;;;;;;;;;739385;186;911527;-78
2021/06/08 13:39:03;;;;;;;8.20;6.80;;;;;;;;;;742640;186;1019981;-78
2021/06/08 13:41:29;;;;;;;15.33;8.07;;;;;;;;;;743848;186;970536;-78
2021/06/08 13:43:55;;;;;;;7.12;6.53;;;;;;;;;;752241;186;918847;-78
2021/06/08 13:46:21;;;;;;;9.60;6.87;;;;;;;;;;739511;186;897399;-79
2021/06/08 13:48:52;;;;;;;7.90;7.10;;;;;;;;;;747163;186;720947;-79
2021/06/08 13:51:33;;;;;;;7.40;6.70;;;;;;;;;;741031;186;815225;-77
2021/06/08 13:54:08;;;;;;;8.43;7.10;;;;;;;;;;743740;186;919149;-78
2021/06/08 13:56:40;;;;;;;8.03;6.27;;;;;;;;;;748080;184;917214;-79
2021/06/08 14:01:34;;;;;;;6.93;6.33;;;;;;;;;;742533;187;841341;-79
2021/06/08 14:04:01;;;;;;;7.93;6.90;;;;;;;;;;741466;187;917756;-76